Time;durP1;ratioP1;P1;durP2;ratioP2;P2;SDS_P1;SDS_P2;PMS_P1;PMS_P2;Temp;Humidity;BMP_temperature;BMP_pressure;BME280_temperature;BME280_humidity;BME280_pressure;Samples;Min_cycle;Max_cycle;Signal;HPM_P1;HPM_P2
2022/01/30 00:04:43;;;;;;;5.67;2.37;;;;;;;6.33;100.00;98459.31;10463715;28;20295;-65
2022/01/30 00:09:48;;;;;;;5.23;1.90;;;;;;;6.46;100.00;98446.97;10487196;28;20218;-63
2022/01/30 00:14:54;;;;;;;4.63;2.17;;;;;;;6.49;100.00;98436.63;10467355;28;20673;-65
2022/01/30 00:20:02;;;;;;;4.43;1.90;;;;;;;6.51;100.00;98445.13;10497759;28;20224;-63
2022/01/30 00:25:12;;;;;;;2.10;1.00;;;;;;;6.57;100.00;98457.88;10513128;28;20219;-67
2022/01/30 00:30:18;;;;;;;5.23;1.70;;;;;;;6.11;100.00;98481.28;10488468;28;20219;-63
2022/01/30 00:35:22;;;;;;;5.53;1.07;;;;;;;5.89;100.00;98510.97;10467471;28;20519;-65
2022/01/30 00:40:26;;;;;;;4.13;1.07;;;;;;;5.73;100.00;98525.84;10465801;28;20527;-63
2022/01/30 00:45:29;;;;;;;5.67;0.97;;;;;;;5.68;100.00;98513.94;10463316;28;20227;-65
2022/01/30 00:50:35;;;;;;;3.57;1.00;;;;;;;5.65;100.00;98539.75;10460342;28;20211;-66
2022/01/30 00:55:38;;;;;;;5.07;0.63;;;;;;;5.68;100.00;98489.06;10497081;28;20231;-64
2022/01/30 01:00:42;;;;;;;4.97;1.10;;;;;;;5.57;100.00;98532.16;10485790;28;20209;-65
2022/01/30 01:05:47;;;;;;;3.80;1.07;;;;;;;5.47;100.00;98528.06;10493809;28;20217;-65
2022/01/30 01:10:57;;;;;;;5.43;0.87;;;;;;;5.54;100.00;98511.63;10469108;28;20240;-67
2022/01/30 01:26:43;;;;;;;13.57;4.93;;;;;;;5.45;100.00;98514.38;10504618;28;20220;-65
2022/01/30 01:31:46;;;;;;;10.17;1.83;;;;;;;5.26;100.00;98507.06;10529416;28;20557;-66
2022/01/30 01:36:51;;;;;;;6.27;1.13;;;;;;;5.23;100.00;98543.97;10545831;28;20302;-64
2022/01/30 01:41:54;;;;;;;6.33;1.37;;;;;;;5.14;100.00;98523.59;10545880;28;20560;-64
2022/01/30 01:46:57;;;;;;;5.10;1.13;;;;;;;5.11;100.00;98520.22;10545595;28;20770;-64
2022/01/30 01:52:18;;;;;;;3.20;0.80;;;;;;;5.17;100.00;98520.94;10545263;28;20219;-70
2022/01/30 01:57:26;;;;;;;12.83;1.60;;;;;;;5.08;100.00;98510.81;10545349;28;20234;-67
2022/01/30 02:02:29;;;;;;;6.10;0.97;;;;;;;5.11;100.00;98518.47;10544846;28;20220;-64
2022/01/30 02:13:09;;;;;;;14.13;2.30;;;;;;;5.09;100.00;98527.09;10544594;28;20211;-67
2022/01/30 02:29:01;;;;;;;6.10;1.50;;;;;;;4.99;100.00;98500.69;10486078;28;20573;-65
2022/01/30 02:34:05;;;;;;;10.10;1.50;;;;;;;4.99;100.00;98484.44;10501783;28;20220;-62
2022/01/30 02:39:09;;;;;;;7.27;1.43;;;;;;;4.90;100.00;98498.28;10501800;28;20553;-68
2022/01/30 02:44:18;;;;;;;12.27;1.90;;;;;;;4.84;100.00;98480.41;10501300;28;20222;-66
2022/01/30 02:49:42;;;;;;;7.07;1.57;;;;;;;4.85;100.00;98471.81;10501415;28;20228;-63
2022/01/30 02:54:46;;;;;;;6.50;1.30;;;;;;;4.87;100.00;98439.22;10485169;28;20223;-65
2022/01/30 02:59:50;;;;;;;9.20;1.60;;;;;;;4.85;100.00;98455.56;10489176;28;20229;-63
2022/01/30 03:04:53;;;;;;;10.00;2.07;;;;;;;4.82;100.00;98438.47;10462423;28;20221;-64
2022/01/30 03:09:57;;;;;;;11.33;1.80;;;;;;;4.86;100.00;98481.25;10497338;28;20219;-64
2022/01/30 03:15:01;;;;;;;12.47;3.47;;;;;;;4.80;100.00;98480.50;10487902;28;20223;-62
2022/01/30 03:20:05;;;;;;;9.50;1.97;;;;;;;4.67;100.00;98473.00;10479349;28;20236;-62
2022/01/30 03:25:09;;;;;;;10.10;1.87;;;;;;;4.42;100.00;98463.13;10461723;28;20217;-63
2022/01/30 03:30:18;;;;;;;8.83;1.33;;;;;;;3.84;100.00;98452.94;10461397;28;20768;-62
2022/01/30 03:35:22;;;;;;;8.23;1.40;;;;;;;3.78;100.00;98455.56;10461371;28;20217;-66
2022/01/30 03:40:27;;;;;;;7.03;0.93;;;;;;;3.72;100.00;98437.72;10459762;28;20304;-65
2022/01/30 03:45:30;;;;;;;8.93;1.77;;;;;;;3.71;100.00;98455.69;10460893;28;20217;-65
2022/01/30 03:50:35;;;;;;;3.97;0.90;;;;;;;3.76;100.00;98418.84;10460619;28;20577;-65
2022/01/30 03:55:39;;;;;;;5.37;0.90;;;;;;;3.85;100.00;98412.72;10464873;28;20223;-66
2022/01/30 04:00:43;;;;;;;7.80;1.30;;;;;;;3.88;100.00;98428.06;10460065;28;20216;-65
2022/01/30 04:05:46;;;;;;;5.23;1.43;;;;;;;3.92;100.00;98399.78;10459878;28;20655;-63
2022/01/30 04:10:51;;;;;;;7.57;1.57;;;;;;;4.01;100.00;98399.63;10459796;28;20239;-65
2022/01/30 04:15:55;;;;;;;9.77;2.47;;;;;;;4.07;100.00;98399.53;10459578;28;20212;-64
2022/01/30 04:20:58;;;;;;;9.00;1.70;;;;;;;4.08;100.00;98392.69;10459203;28;20232;-64
2022/01/30 04:26:08;;;;;;;8.73;1.70;;;;;;;4.17;100.00;98384.84;10459473;28;20227;-65
2022/01/30 04:31:13;;;;;;;10.87;1.63;;;;;;;4.27;100.00;98376.97;10459470;28;20220;-68
2022/01/30 04:36:21;;;;;;;14.00;2.33;;;;;;;4.35;100.00;98374.25;10459370;28;20238;-67
2022/01/30 04:52:37;;;;;;;6.60;1.70;;;;;;;4.59;100.00;98304.47;10463757;28;20311;-65
2022/01/30 04:57:50;;;;;;;7.63;1.30;;;;;;;4.69;100.00;98335.06;10467332;28;20238;-64
2022/01/30 05:03:01;;;;;;;9.90;2.20;;;;;;;4.71;99.13;98323.06;10467397;28;20213;-67
2022/01/30 05:08:05;;;;;;;10.70;2.27;;;;;;;4.77;97.56;98272.41;10466973;28;20673;-67
2022/01/30 05:13:15;;;;;;;10.37;1.27;;;;;;;4.80;97.92;98265.50;10466970;28;20302;-65
2022/01/30 05:18:20;;;;;;;15.13;3.57;;;;;;;4.86;95.91;98262.81;10466593;28;20240;-62
2022/01/30 05:23:24;;;;;;;6.03;1.47;;;;;;;4.82;95.26;98262.88;10466307;28;20677;-64
2022/01/30 05:28:29;;;;;;;6.50;1.60;;;;;;;4.87;94.53;98220.81;10466031;28;20557;-65
2022/01/30 05:33:33;;;;;;;7.37;1.40;;;;;;;4.73;98.50;98249.38;10465976;28;20692;-66
2022/01/30 05:38:36;;;;;;;7.83;1.57;;;;;;;4.34;100.00;98245.03;10465914;28;20311;-67
2022/01/30 05:43:42;;;;;;;7.57;1.43;;;;;;;4.34;100.00;98270.72;10465507;28;20216;-67
2022/01/30 05:48:46;;;;;;;4.83;1.43;;;;;;;4.27;100.00;98225.50;10465571;28;20224;-64
2022/01/30 05:53:49;;;;;;;10.17;1.77;;;;;;;4.34;100.00;98255.31;10465183;28;20216;-66
2022/01/30 05:58:54;;;;;;;8.00;1.30;;;;;;;4.35;100.00;98238.16;10464930;28;20224;-63
2022/01/30 06:03:57;;;;;;;5.40;1.10;;;;;;;4.39;96.83;98265.47;10463649;28;20217;-63
2022/01/30 06:09:12;;;;;;;7.90;2.20;;;;;;;4.38;96.12;98323.69;10464668;28;20217;-63
2022/01/30 06:14:16;;;;;;;7.53;2.20;;;;;;;4.43;96.54;98274.81;10464469;28;20227;-67
2022/01/30 06:19:22;;;;;;;10.70;1.30;;;;;;;4.37;95.60;98286.06;10464232;28;20224;-65
2022/01/30 06:24:25;;;;;;;9.33;1.27;;;;;;;4.41;94.42;98287.69;10464034;28;20240;-63
2022/01/30 06:29:29;;;;;;;12.47;1.63;;;;;;;4.44;93.78;98261.94;10463682;28;20212;-65
2022/01/30 06:34:32;;;;;;;5.60;0.90;;;;;;;4.49;93.86;98308.94;10463610;28;20236;-67
2022/01/30 06:39:36;;;;;;;6.30;0.90;;;;;;;4.50;94.05;98291.81;10463264;28;20666;-64
2022/01/30 06:44:43;;;;;;;8.90;1.67;;;;;;;4.40;95.89;98298.00;10463458;28;20213;-66
2022/01/30 06:49:46;;;;;;;7.47;1.33;;;;;;;4.36;96.61;98288.66;10463432;28;20300;-65
2022/01/30 06:54:49;;;;;;;7.87;2.27;;;;;;;4.30;96.83;98296.47;10462900;28;20528;-63
2022/01/30 06:59:53;;;;;;;7.53;1.23;;;;;;;4.32;96.63;98284.44;10462354;28;20680;-66
2022/01/30 07:04:57;;;;;;;6.13;1.27;;;;;;;4.34;96.99;98280.13;10462517;28;20203;-64
2022/01/30 07:10:00;;;;;;;9.90;1.67;;;;;;;4.35;96.00;98274.97;10462437;28;20211;-65
2022/01/30 07:15:06;;;;;;;7.90;1.17;;;;;;;4.46;95.86;98264.50;10461775;28;20280;-62
2022/01/30 07:20:11;;;;;;;9.30;1.30;;;;;;;4.42;98.25;98253.44;10461610;28;20242;-63
2022/01/30 07:25:14;;;;;;;6.03;1.50;;;;;;;4.13;100.00;98244.59;10461701;28;20193;-65
2022/01/30 07:30:19;;;;;;;6.97;1.80;;;;;;;4.01;100.00;98230.28;10461360;28;20207;-63
2022/01/30 07:35:22;;;;;;;8.50;1.33;;;;;;;4.03;100.00;98218.25;10461096;28;20193;-65
2022/01/30 07:40:27;;;;;;;7.23;1.40;;;;;;;4.03;100.00;98223.38;10460878;28;20213;-64
2022/01/30 07:45:32;;;;;;;4.40;1.07;;;;;;;3.99;100.00;98261.94;10460711;28;20537;-62
2022/01/30 07:50:35;;;;;;;9.37;1.30;;;;;;;3.80;100.00;98227.22;10477686;28;20203;-63
2022/01/30 07:55:39;;;;;;;5.10;0.93;;;;;;;3.50;100.00;98252.50;10501761;28;20603;-66
2022/01/30 08:00:43;;;;;;;7.83;1.03;;;;;;;3.32;100.00;98257.94;10501517;28;20314;-65
2022/01/30 08:05:46;;;;;;;3.43;1.00;;;;;;;3.04;100.00;98276.28;10501760;28;20212;-62
2022/01/30 08:10:50;;;;;;;6.23;0.90;;;;;;;2.96;100.00;98267.88;10501440;28;20222;-63
2022/01/30 08:15:54;;;;;;;3.37;0.77;;;;;;;2.84;100.00;98263.78;10493569;28;20216;-63
2022/01/30 08:20:58;;;;;;;0.83;0.40;;;;;;;2.64;100.00;98282.81;10459418;28;20272;-62
2022/01/30 08:26:02;;;;;;;3.27;1.17;;;;;;;2.51;100.00;98268.44;10468804;28;20708;-62
2022/01/30 08:31:06;;;;;;;4.03;1.03;;;;;;;2.51;100.00;98289.78;10500645;28;20220;-59
2022/01/30 08:36:09;;;;;;;2.63;0.70;;;;;;;2.60;100.00;98264.09;10477867;28;20215;-67
2022/01/30 08:41:13;;;;;;;1.83;0.63;;;;;;;2.73;100.00;98265.63;10472696;28;20234;-65
2022/01/30 08:46:17;;;;;;;2.20;0.47;;;;;;;2.78;100.00;98292.00;10487144;28;20227;-65
2022/01/30 08:51:22;;;;;;;1.80;0.23;;;;;;;2.66;100.00;98248.63;10478914;28;20227;-64
2022/01/30 08:56:25;;;;;;;4.17;0.50;;;;;;;2.82;100.00;98272.31;10500146;28;20679;-66
2022/01/30 09:01:32;;;;;;;1.50;0.40;;;;;;;2.89;100.00;98299.56;10499927;28;20224;-67
2022/01/30 09:06:38;;;;;;;4.43;0.40;;;;;;;2.96;100.00;98281.53;10499924;28;20546;-64
2022/01/30 09:11:41;;;;;;;3.00;1.10;;;;;;;3.05;100.00;98286.53;10499766;28;20299;-65
2022/01/30 09:16:46;;;;;;;3.47;0.87;;;;;;;3.03;100.00;98269.47;10485299;28;20236;-67
2022/01/30 09:22:12;;;;;;;1.37;0.47;;;;;;;3.17;100.00;98283.81;10458292;28;20228;-66
2022/01/30 09:27:15;;;;;;;3.27;0.73;;;;;;;3.22;100.00;98281.16;10458232;28;20217;-63
2022/01/30 09:32:20;;;;;;;3.00;1.00;;;;;;;3.30;100.00;98275.06;10458070;28;20674;-62
2022/01/30 09:37:24;;;;;;;3.07;0.70;;;;;;;3.47;100.00;98283.34;10461335;28;20221;-65
2022/01/30 09:42:28;;;;;;;2.87;0.90;;;;;;;3.41;100.00;98288.56;10465669;28;20565;-63
2022/01/30 09:47:34;;;;;;;4.13;1.03;;;;;;;3.48;100.00;98291.88;10465383;28;20227;-63
2022/01/30 09:52:37;;;;;;;3.67;0.90;;;;;;;3.39;100.00;98284.31;10465036;28;20220;-67
2022/01/30 09:57:43;;;;;;;5.93;1.47;;;;;;;3.44;100.00;98282.53;10465039;28;20273;-60
2022/01/30 10:02:48;;;;;;;5.43;1.53;;;;;;;3.54;100.00;98279.81;10464811;28;20278;-63
2022/01/30 10:07:55;;;;;;;3.73;1.13;;;;;;;3.58;100.00;98285.75;10464614;28;20304;-64
2022/01/30 10:13:04;;;;;;;7.03;1.37;;;;;;;3.56;100.00;98279.78;10464532;28;20552;-66
2022/01/30 10:18:09;;;;;;;4.27;1.60;;;;;;;3.68;100.00;98279.59;10464200;28;20549;-65
2022/01/30 10:23:12;;;;;;;7.97;1.30;;;;;;;3.77;100.00;98287.13;10476772;28;20665;-63
2022/01/30 10:28:18;;;;;;;8.17;1.47;;;;;;;3.74;100.00;98268.38;10492412;28;20587;-64
2022/01/30 10:33:37;;;;;;;9.17;1.80;;;;;;;3.78;100.00;98272.59;10496638;28;20281;-64
2022/01/30 10:38:47;;;;;;;8.67;1.33;;;;;;;3.75;100.00;98254.69;10476157;28;20234;-64
2022/01/30 10:43:54;;;;;;;6.23;1.73;;;;;;;3.72;100.00;98260.72;10496551;28;20284;-65
2022/01/30 10:49:01;;;;;;;9.67;1.80;;;;;;;3.61;100.00;98249.78;10467773;28;20235;-64
2022/01/30 10:54:09;;;;;;;7.10;1.97;;;;;;;3.55;100.00;98260.97;10502646;28;20288;-62
2022/01/30 10:59:14;;;;;;;10.03;2.50;;;;;;;3.47;100.00;98261.97;10504024;28;20316;-66
2022/01/30 11:04:24;;;;;;;8.30;1.73;;;;;;;3.45;100.00;98268.88;10503214;28;20234;-63
2022/01/30 11:09:33;;;;;;;8.67;2.13;;;;;;;3.44;100.00;98242.38;10466104;28;20308;-64
2022/01/30 11:14:52;;;;;;;9.33;2.30;;;;;;;3.46;100.00;98232.94;10467721;28;20345;-68
2022/01/30 11:19:58;;;;;;;6.47;2.50;;;;;;;3.41;100.00;98241.56;10482827;28;20576;-64
2022/01/30 11:25:04;;;;;;;13.23;2.13;;;;;;;3.41;100.00;98233.88;10468440;28;20297;-62
2022/01/30 11:30:09;;;;;;;8.10;1.87;;;;;;;3.54;100.00;98231.09;10489263;28;20672;-63
2022/01/30 11:35:14;;;;;;;7.97;1.70;;;;;;;3.58;100.00;98296.00;10464071;28;20666;-63
2022/01/30 11:40:20;;;;;;;6.73;2.20;;;;;;;3.58;100.00;98290.00;10490544;28;20227;-64
2022/01/30 11:45:27;;;;;;;10.53;2.07;;;;;;;3.70;100.00;98310.34;10460595;28;20597;-65
2022/01/30 11:50:38;;;;;;;10.10;2.13;;;;;;;3.81;100.00;98308.47;10460235;28;20554;-65
2022/01/30 11:55:54;;;;;;;8.87;1.73;;;;;;;3.93;100.00;98303.97;10460258;28;20217;-64
2022/01/30 12:00:58;;;;;;;8.03;1.63;;;;;;;3.99;100.00;98316.69;10461372;28;20556;-64
2022/01/30 12:06:31;;;;;;;6.10;1.13;;;;;;;3.96;100.00;98314.19;10491398;28;20273;-63
2022/01/30 12:11:58;;;;;;;5.63;1.57;;;;;;;3.89;100.00;98325.41;10137859;27;10000829;-65
2022/01/30 12:17:02;;;;;;;10.40;3.63;;;;;;;3.85;100.00;98325.50;10472236;28;20676;-66
2022/01/30 12:22:41;;;;;;;6.93;1.70;;;;;;;3.81;100.00;98358.06;10481120;28;20666;-66
2022/01/30 12:27:48;;;;;;;3.53;1.60;;;;;;;3.86;100.00;98383.63;10455890;28;20224;-62
2022/01/30 12:32:53;;;;;;;3.23;0.80;;;;;;;3.97;100.00;98390.28;10464859;28;20220;-63
2022/01/30 12:37:58;;;;;;;5.67;1.00;;;;;;;3.95;100.00;98389.44;10455609;28;20213;-63
2022/01/30 12:43:03;;;;;;;3.90;1.03;;;;;;;3.87;100.00;98404.13;10477485;28;20255;-63
2022/01/30 12:48:09;;;;;;;6.03;1.20;;;;;;;3.79;100.00;98423.06;10497138;28;20247;-64
2022/01/30 12:53:14;;;;;;;2.43;0.80;;;;;;;3.61;100.00;98416.47;10456375;28;20566;-63
2022/01/30 12:58:18;;;;;;;2.13;0.70;;;;;;;3.61;100.00;98428.47;10455185;28;20572;-63
2022/01/30 13:03:22;;;;;;;5.40;1.10;;;;;;;3.60;100.00;98440.44;10493730;28;20224;-63
2022/01/30 13:08:45;;;;;;;4.10;0.90;;;;;;;3.57;100.00;98452.44;10467764;28;20232;-61
2022/01/30 13:13:57;;;;;;;3.50;0.90;;;;;;;3.70;100.00;98474.50;10478562;28;20224;-63
2022/01/30 13:19:02;;;;;;;3.85;1.10;;;;;;;3.65;100.00;98492.50;10477289;28;20449;-66
2022/01/30 13:24:08;;;;;;;2.43;0.80;;;;;;;3.66;100.00;98501.91;10470069;28;20245;-65
2022/01/30 13:29:15;;;;;;;5.80;1.87;;;;;;;3.60;100.00;98519.94;10471585;28;20217;-60
2022/01/30 13:34:25;;;;;;;3.23;1.13;;;;;;;3.64;100.00;98521.63;10467414;28;20213;-66
2022/01/30 13:39:37;;;;;;;2.13;0.80;;;;;;;3.75;100.00;98536.84;10490423;28;20219;-67
2022/01/30 13:44:49;;;;;;;7.10;1.60;;;;;;;3.82;100.00;98547.03;10495112;28;20557;-67
2022/01/30 13:49:54;;;;;;;2.10;0.80;;;;;;;3.80;100.00;98538.50;10502942;28;20236;-66
2022/01/30 13:55:05;;;;;;;4.30;1.00;;;;;;;3.75;100.00;98554.78;10502687;28;20295;-66
2022/01/30 14:00:12;;;;;;;3.80;1.13;;;;;;;3.76;100.00;98562.50;10503267;28;20226;-63
2022/01/30 14:05:22;;;;;;;15.43;7.33;;;;;;;3.96;100.00;98568.22;10502795;28;20298;-66
2022/01/30 14:10:34;;;;;;;3.23;1.00;;;;;;;4.02;100.00;98583.53;10532536;28;20294;-65
2022/01/30 14:15:37;;;;;;;3.07;0.60;;;;;;;4.03;100.00;98592.94;10502347;28;20216;-64
2022/01/30 14:20:42;;;;;;;1.00;0.40;;;;;;;3.98;100.00;98601.56;10477863;28;20233;-62
2022/01/30 14:25:49;;;;;;;1.93;0.40;;;;;;;3.98;100.00;98610.13;10485828;28;20296;-62
2022/01/30 14:30:54;;;;;;;3.97;0.73;;;;;;;3.94;100.00;98649.50;10489521;28;20740;-64
2022/01/30 14:35:59;;;;;;;2.87;0.50;;;;;;;3.93;100.00;98626.44;10460340;28;20548;-62
2022/01/30 14:41:03;;;;;;;2.27;0.80;;;;;;;3.92;100.00;98666.63;10460195;28;20312;-62
2022/01/30 14:46:07;;;;;;;1.70;0.57;;;;;;;3.96;100.00;98652.91;10488613;28;20550;-65
2022/01/30 14:51:10;;;;;;;2.53;0.87;;;;;;;3.97;100.00;98674.31;10501031;28;20274;-64
2022/01/30 14:56:16;;;;;;;1.37;0.67;;;;;;;3.87;100.00;98694.06;10480352;28;20659;-66
2022/01/30 15:01:20;;;;;;;2.03;0.60;;;;;;;3.91;100.00;98677.78;10460093;28;20227;-62
2022/01/30 15:06:24;;;;;;;2.47;1.17;;;;;;;4.01;100.00;98681.94;10465497;28;20226;-65
2022/01/30 15:11:28;;;;;;;2.00;0.70;;;;;;;4.14;100.00;98695.50;10525030;28;20208;-64
2022/01/30 15:16:41;;;;;;;1.53;0.47;;;;;;;4.33;100.00;98704.69;10460595;28;20271;-64
2022/01/30 15:21:45;;;;;;;5.53;0.90;;;;;;;4.41;100.00;98693.44;10470764;28;20224;-62
2022/01/30 15:26:49;;;;;;;1.37;0.43;;;;;;;4.49;100.00;98711.31;10486312;28;20222;-66
2022/01/30 15:31:55;;;;;;;2.67;0.63;;;;;;;4.53;100.00;98721.53;10498661;28;20592;-65
2022/01/30 15:36:59;;;;;;;3.30;0.50;;;;;;;4.54;100.00;98746.34;10498687;28;20197;-64
2022/01/30 15:42:03;;;;;;;1.93;0.53;;;;;;;4.49;100.00;98739.56;10498964;28;20226;-62
2022/01/30 15:52:39;;;;;;;1.27;0.57;;;;;;;4.68;100.00;98780.44;10430289;28;20223;-64
2022/01/30 15:57:44;;;;;;;6.10;0.80;;;;;;;4.64;100.00;98801.06;10457285;28;20294;-62
2022/01/30 16:02:48;;;;;;;4.70;0.77;;;;;;;4.63;100.00;98819.88;10457067;28;20223;-64
2022/01/30 16:07:51;;;;;;;2.70;0.70;;;;;;;4.59;100.00;98806.22;10473427;28;20660;-66
2022/01/30 16:18:19;;;;;;;3.90;0.77;;;;;;;4.65;99.84;98821.59;10460658;28;20244;-66
2022/01/30 16:23:22;;;;;;;4.33;0.87;;;;;;;4.67;99.45;98842.97;10455824;28;20526;-65
2022/01/30 16:28:27;;;;;;;3.77;0.90;;;;;;;4.66;97.42;98823.28;10456112;28;20272;-66
2022/01/30 16:33:30;;;;;;;2.50;0.63;;;;;;;4.68;96.15;98841.25;10456211;28;20231;-65
2022/01/30 16:38:33;;;;;;;3.20;0.93;;;;;;;4.71;94.23;98836.09;10470278;28;20303;-65
2022/01/30 16:43:47;;;;;;;7.40;2.93;;;;;;;4.75;92.65;98860.84;10495920;28;20230;-64
2022/01/30 16:48:50;;;;;;;2.43;0.60;;;;;;;4.75;87.94;98863.44;10468366;28;20251;-64
2022/01/30 16:53:54;;;;;;;4.17;0.70;;;;;;;4.81;83.84;98891.66;10496680;28;20212;-64
2022/01/30 16:58:59;;;;;;;3.27;0.73;;;;;;;4.84;83.70;98914.75;10497185;28;20228;-66
2022/01/30 17:04:02;;;;;;;8.60;1.60;;;;;;;4.84;83.44;98912.16;10473627;28;20225;-64
2022/01/30 17:09:23;;;;;;;4.30;1.00;;;;;;;4.84;82.94;98927.59;10492061;28;20286;-64
2022/01/30 17:14:29;;;;;;;4.40;1.50;;;;;;;4.84;85.72;98935.28;10489878;28;20253;-64
2022/01/30 17:19:33;;;;;;;1.00;0.50;;;;;;;4.80;86.58;98940.50;10478891;28;20217;-66
2022/01/30 17:24:36;;;;;;;1.60;0.50;;;;;;;4.55;91.22;98943.28;10473748;28;20291;-65
2022/01/30 17:29:41;;;;;;;2.77;0.80;;;;;;;4.38;94.80;98959.72;10458258;28;20585;-63
2022/01/30 17:34:45;;;;;;;1.40;0.33;;;;;;;4.37;96.42;98952.84;10488389;28;20226;-63
2022/01/30 17:39:49;;;;;;;1.17;0.33;;;;;;;4.21;100.00;98992.38;10472516;28;20231;-61
2022/01/30 17:44:53;;;;;;;3.43;0.80;;;;;;;4.07;100.00;98979.59;10493480;28;20671;-65
2022/01/30 17:49:57;;;;;;;1.57;0.50;;;;;;;3.95;100.00;98976.28;10499582;28;20243;-66
2022/01/30 17:55:00;;;;;;;4.37;0.60;;;;;;;4.01;100.00;99007.03;10481851;28;20227;-65
2022/01/30 18:00:07;;;;;;;2.80;1.07;;;;;;;4.03;100.00;99042.09;10461368;28;20219;-68
2022/01/30 18:05:13;;;;;;;3.70;1.27;;;;;;;4.00;100.00;99031.00;10464553;28;20557;-64
2022/01/30 18:10:17;;;;;;;3.87;1.40;;;;;;;3.65;100.00;99055.94;10482240;28;20208;-66
2022/01/30 18:15:21;;;;;;;3.17;1.13;;;;;;;3.59;100.00;99036.28;10477580;28;20212;-63
2022/01/30 18:20:26;;;;;;;3.07;0.80;;;;;;;3.66;100.00;99029.47;10505460;28;20236;-63
2022/01/30 18:25:30;;;;;;;3.20;0.70;;;;;;;3.56;100.00;99041.44;10505605;28;20220;-66
2022/01/30 18:30:34;;;;;;;3.10;0.47;;;;;;;3.42;100.00;99081.66;10505041;28;20522;-65
2022/01/30 18:35:41;;;;;;;3.27;0.90;;;;;;;3.31;100.00;99096.22;10499054;28;20212;-67
2022/01/30 18:41:00;;;;;;;4.70;1.20;;;;;;;3.22;100.00;99086.00;10473451;28;20221;-62
2022/01/30 18:46:05;;;;;;;4.73;0.70;;;;;;;3.22;100.00;99103.94;10463401;28;20224;-65
2022/01/30 18:51:09;;;;;;;3.57;0.80;;;;;;;3.22;100.00;99103.94;10462979;28;20229;-64
2022/01/30 18:56:13;;;;;;;1.40;0.60;;;;;;;3.21;100.00;99094.53;10473431;28;20212;-63
2022/01/30 19:01:18;;;;;;;2.67;0.97;;;;;;;3.20;100.00;99082.56;10503877;28;20216;-63
2022/01/30 19:06:22;;;;;;;3.33;1.00;;;;;;;3.14;100.00;99062.91;10476343;28;20222;-65
2022/01/30 19:11:26;;;;;;;3.53;0.67;;;;;;;3.17;100.00;99074.88;10497150;28;20220;-65
2022/01/30 19:16:31;;;;;;;4.33;0.90;;;;;;;3.24;100.00;99074.03;10497104;28;20595;-64
2022/01/30 19:21:35;;;;;;;2.23;0.50;;;;;;;3.32;100.00;99079.97;10479559;28;20690;-63
2022/01/30 19:26:38;;;;;;;4.90;0.73;;;;;;;3.40;100.00;99076.53;10461596;28;20254;-67
2022/01/30 19:31:43;;;;;;;3.40;0.93;;;;;;;3.42;100.00;99076.53;10485441;28;20334;-63
2022/01/30 19:36:46;;;;;;;3.90;0.77;;;;;;;3.40;100.00;99078.25;10472688;28;20216;-67
2022/01/30 19:41:49;;;;;;;3.73;1.10;;;;;;;3.35;100.00;99085.97;10461069;28;20228;-65
2022/01/30 19:46:56;;;;;;;5.23;1.00;;;;;;;3.42;100.00;99089.34;10461117;28;20244;-64
2022/01/30 19:51:59;;;;;;;5.57;1.37;;;;;;;3.54;100.00;99115.84;10465719;28;20221;-64
2022/01/30 19:57:02;;;;;;;4.83;1.47;;;;;;;3.65;100.00;99144.03;10491636;28;20228;-65
2022/01/30 20:02:07;;;;;;;7.27;2.13;;;;;;;3.66;100.00;99158.56;10467309;28;20235;-65
2022/01/30 20:07:10;;;;;;;24.20;12.23;;;;;;;3.38;100.00;99179.97;10485835;28;20216;-66
2022/01/30 20:12:14;;;;;;;10.73;2.10;;;;;;;3.13;100.00;99204.75;10476821;28;20193;-67
2022/01/30 20:17:19;;;;;;;4.63;1.07;;;;;;;2.90;100.00;99201.28;10478111;28;20202;-63
2022/01/30 20:22:23;;;;;;;5.73;1.47;;;;;;;2.73;100.00;99207.22;10500252;28;20369;-67
2022/01/30 20:27:26;;;;;;;3.80;0.90;;;;;;;2.66;100.00;99226.03;10500815;28;20295;-62
2022/01/30 20:32:35;;;;;;;3.27;0.97;;;;;;;2.64;100.00;99241.34;10500919;28;20200;-70
2022/01/30 20:37:38;;;;;;;3.27;1.10;;;;;;;2.63;100.00;99254.16;10500788;28;20640;-64
2022/01/30 20:42:41;;;;;;;5.63;0.93;;;;;;;2.56;100.00;99232.81;10500715;28;20310;-63
2022/01/30 20:47:46;;;;;;;4.80;0.90;;;;;;;2.58;100.00;99214.88;10500710;28;20223;-65
2022/01/30 20:52:49;;;;;;;5.33;1.20;;;;;;;2.61;100.00;99213.19;10500528;28;20302;-63
2022/01/30 20:57:52;;;;;;;6.43;1.30;;;;;;;2.73;100.00;99202.97;10491918;28;20220;-62
2022/01/30 21:02:57;;;;;;;3.40;0.97;;;;;;;2.78;100.00;99206.41;10499998;28;20231;-64
2022/01/30 21:08:01;;;;;;;2.87;0.73;;;;;;;2.87;100.00;99211.53;10500084;28;20303;-66
2022/01/30 21:13:11;;;;;;;4.53;0.83;;;;;;;2.89;100.00;99203.84;10500019;28;20215;-64
2022/01/30 21:18:16;;;;;;;11.77;4.70;;;;;;;3.20;100.00;99200.47;10498585;28;20220;-65
2022/01/30 21:23:19;;;;;;;1.77;0.53;;;;;;;3.12;100.00;99208.16;10459298;28;20250;-66
2022/01/30 21:28:23;;;;;;;4.07;0.90;;;;;;;3.18;100.00;99203.03;10486911;28;20255;-63
2022/01/30 21:33:27;;;;;;;4.07;0.83;;;;;;;3.13;100.00;99235.50;10502621;28;20220;-68
2022/01/30 21:38:30;;;;;;;4.43;1.03;;;;;;;3.00;100.00;99217.56;10507207;28;20618;-65
2022/01/30 21:43:34;;;;;;;4.33;0.93;;;;;;;2.88;100.00;99241.44;10480833;28;20614;-66
2022/01/30 21:48:38;;;;;;;6.60;1.47;;;;;;;2.90;100.00;99236.34;10465499;28;20219;-64
2022/01/30 21:53:44;;;;;;;5.53;1.30;;;;;;;2.89;100.00;99249.97;10491520;28;20224;-64
2022/01/30 21:58:47;;;;;;;7.33;1.50;;;;;;;2.94;100.00;99250.84;10506529;28;20300;-71
2022/01/30 22:03:52;;;;;;;5.00;1.10;;;;;;;2.95;100.00;99273.91;10506333;28;20332;-62
2022/01/30 22:08:55;;;;;;;3.50;0.93;;;;;;;3.04;100.00;99273.06;10477853;28;20235;-67
2022/01/30 22:14:03;;;;;;;7.90;1.93;;;;;;;2.95;100.00;99291.84;10463664;28;20231;-62
2022/01/30 22:19:08;;;;;;;7.40;1.77;;;;;;;2.65;100.00;99304.56;10167517;27;9999853;-65
2022/01/30 22:24:11;;;;;;;7.30;1.63;;;;;;;2.40;100.00;99319.78;10502389;28;20250;-66
2022/01/30 22:29:16;;;;;;;9.40;1.93;;;;;;;2.27;100.00;99304.38;10502442;28;20251;-64
2022/01/30 22:34:22;;;;;;;21.87;4.20;;;;;;;2.27;100.00;99304.38;10499688;28;20282;-59
2022/01/30 22:39:26;;;;;;;11.13;1.57;;;;;;;2.26;100.00;99296.69;10501235;28;20216;-64
2022/01/30 22:44:29;;;;;;;7.53;1.50;;;;;;;2.21;100.00;99301.75;10500826;28;20236;-60
2022/01/30 22:49:34;;;;;;;7.20;1.70;;;;;;;2.30;100.00;99319.72;10501455;28;20216;-62
2022/01/30 22:54:37;;;;;;;6.03;1.50;;;;;;;2.36;100.00;99309.50;10485191;28;20307;-62
2022/01/30 22:59:40;;;;;;;6.80;1.50;;;;;;;2.47;100.00;99326.66;10498087;28;20219;-59
2022/01/30 23:04:47;;;;;;;9.27;1.30;;;;;;;2.57;100.00;99315.63;10500691;28;20224;-62
2022/01/30 23:09:50;;;;;;;4.07;1.27;;;;;;;2.64;100.00;99319.91;10500783;28;20220;-62
2022/01/30 23:14:53;;;;;;;5.77;2.03;;;;;;;2.75;100.00;99323.38;10500256;28;20677;-59
2022/01/30 23:19:57;;;;;;;5.17;1.40;;;;;;;2.81;100.00;99328.53;10537477;28;20245;-64
2022/01/30 23:25:01;;;;;;;7.63;1.70;;;;;;;2.89;100.00;99317.47;10542037;28;20233;-61
2022/01/30 23:30:05;;;;;;;5.23;1.30;;;;;;;3.03;97.98;99322.63;10541534;28;20230;-62
2022/01/30 23:35:10;;;;;;;5.73;1.90;;;;;;;3.04;96.23;99325.19;10532608;28;20216;-62
2022/01/30 23:40:13;;;;;;;5.13;1.27;;;;;;;3.14;93.37;99318.41;10487071;28;20230;-63
2022/01/30 23:45:18;;;;;;;5.47;1.53;;;;;;;3.17;93.40;99333.78;10460877;28;20239;-62
2022/01/30 23:50:24;;;;;;;6.87;1.43;;;;;;;3.16;93.14;99324.34;10457998;28;20213;-60
2022/01/30 23:55:27;;;;;;;6.73;1.13;;;;;;;3.27;91.42;99322.69;10460944;28;20204;-62
